createdAt,value
2019-04-04T00:01:07.831Z,11.93
2019-04-04T00:04:13.114Z,11.23
2019-04-04T00:07:18.490Z,11.43
2019-04-04T00:10:23.794Z,11.07
2019-04-04T00:13:29.184Z,11.30
2019-04-04T00:16:36.006Z,11.50
2019-04-04T00:19:41.267Z,11.43
2019-04-04T00:22:49.555Z,11.80
2019-04-04T00:25:54.900Z,11.10
2019-04-04T00:29:01.518Z,11.73
2019-04-04T00:32:07.131Z,10.87
2019-04-04T00:35:14.425Z,11.20
2019-04-04T00:38:22.468Z,9.93
2019-04-04T00:41:27.691Z,9.10
2019-04-04T00:44:33.099Z,9.00
2019-04-04T00:47:38.404Z,9.10
2019-04-04T00:50:43.826Z,8.97
2019-04-04T00:53:51.415Z,8.77
2019-04-04T00:56:56.654Z,7.17
2019-04-04T01:00:02.032Z,8.40
2019-04-04T01:03:07.299Z,6.67
2019-04-04T01:06:12.591Z,6.60
2019-04-04T01:09:17.827Z,6.53
2019-04-04T01:12:23.149Z,6.77
2019-04-04T01:15:30.809Z,6.70
2019-04-04T01:18:37.452Z,5.90
2019-04-04T01:21:42.330Z,6.23
2019-04-04T01:24:47.669Z,6.47
2019-04-04T01:27:52.907Z,7.27
2019-04-04T01:30:58.206Z,6.50
2019-04-04T01:34:03.468Z,6.57
2019-04-04T01:37:08.803Z,8.00
2019-04-04T01:40:18.809Z,9.17
2019-04-04T01:43:24.169Z,9.27
2019-04-04T01:46:29.557Z,10.53
2019-04-04T01:49:34.896Z,10.40
2019-04-04T01:52:40.148Z,11.10
2019-04-04T01:55:45.429Z,11.20
2019-04-04T01:58:50.752Z,11.60
2019-04-04T02:01:56.140Z,11.70
2019-04-04T02:05:01.534Z,11.47
2019-04-04T02:08:06.871Z,13.43
2019-04-04T02:11:12.139Z,14.63
2019-04-04T02:14:19.476Z,16.77
2019-04-04T02:17:24.380Z,16.97
2019-04-04T02:20:29.791Z,17.47
2019-04-04T02:23:36.065Z,18.60
2019-04-04T02:26:41.405Z,17.97
2019-04-04T02:29:48.349Z,18.30
2019-04-04T02:32:53.975Z,18.77
2019-04-04T02:35:59.436Z,19.27
2019-04-04T02:39:08.464Z,17.70
2019-04-04T02:42:13.719Z,15.97
2019-04-04T02:45:19.019Z,17.77
2019-04-04T02:48:24.810Z,17.00
2019-04-04T02:51:31.246Z,16.30
2019-04-04T02:54:36.673Z,16.97
2019-04-04T02:57:44.053Z,16.10
2019-04-04T03:00:49.440Z,15.30
2019-04-04T03:03:54.870Z,13.93
2019-04-04T03:07:01.916Z,11.60
2019-04-04T03:10:07.622Z,13.00
2019-04-04T03:13:12.894Z,13.50
2019-04-04T03:16:20.976Z,15.23
2019-04-04T03:19:28.167Z,17.80
2019-04-04T03:22:33.467Z,17.47
2019-04-04T03:25:38.803Z,17.80
2019-04-04T03:28:44.093Z,18.43
2019-04-04T03:31:49.430Z,17.47
2019-04-04T03:34:54.867Z,15.40
2019-04-04T03:38:00.228Z,17.23
2019-04-04T03:41:08.158Z,15.67
2019-04-04T03:44:15.069Z,15.17
2019-04-04T03:47:20.436Z,15.03
2019-04-04T03:50:29.219Z,16.67
2019-04-04T03:53:35.266Z,16.60
2019-04-04T03:56:39.823Z,15.93
2019-04-04T03:59:45.175Z,16.73
2019-04-04T04:02:50.986Z,17.00
2019-04-04T04:05:56.501Z,18.03
2019-04-04T04:09:01.771Z,17.27
2019-04-04T04:12:11.204Z,17.73
2019-04-04T04:15:15.383Z,17.43
2019-04-04T04:18:21.752Z,18.13
2019-04-04T04:21:27.214Z,17.30
2019-04-04T04:24:32.619Z,19.13
2019-04-04T04:27:37.926Z,18.50
2019-04-04T04:30:43.279Z,18.43
2019-04-04T04:33:49.971Z,18.20
2019-04-04T04:36:55.392Z,19.10
2019-04-04T04:40:00.810Z,19.77
2019-04-04T04:43:06.092Z,20.43
2019-04-04T04:46:16.953Z,20.70
2019-04-04T04:49:23.330Z,20.50
2019-04-04T04:52:27.898Z,20.97
2019-04-04T04:55:33.272Z,19.67
2019-04-04T04:58:41.866Z,18.60
2019-04-04T05:01:45.635Z,18.63
2019-04-04T05:04:51.070Z,17.43
2019-04-04T05:07:56.368Z,17.07
2019-04-04T05:11:01.752Z,17.87
2019-04-04T05:14:07.045Z,18.27
2019-04-04T05:17:12.328Z,17.97
2019-04-04T05:20:20.858Z,16.97
2019-04-04T05:23:26.151Z,17.10
2019-04-04T05:26:32.272Z,18.07
2019-04-04T05:29:38.502Z,17.70
2019-04-04T05:32:43.759Z,18.13
2019-04-04T05:35:49.058Z,16.60
2019-04-04T05:38:54.357Z,16.30
2019-04-04T05:42:00.391Z,15.47
2019-04-04T05:45:07.680Z,16.07
2019-04-04T05:48:13.087Z,16.60
2019-04-04T05:51:18.441Z,14.77
2019-04-04T05:54:26.348Z,16.60
2019-04-04T05:57:32.369Z,16.43
2019-04-04T06:00:40.352Z,15.90
2019-04-04T06:03:47.788Z,16.70
2019-04-04T06:06:55.436Z,14.97
2019-04-04T06:09:59.688Z,16.47
2019-04-04T06:13:05.009Z,15.67
2019-04-04T06:16:10.262Z,16.10
2019-04-04T06:19:15.522Z,15.30
2019-04-04T06:22:21.125Z,16.27
2019-04-04T06:25:27.143Z,15.57
2019-04-04T06:28:32.572Z,15.67
2019-04-04T06:31:37.966Z,16.60
2019-04-04T06:34:44.276Z,15.80
2019-04-04T06:37:51.445Z,15.70
2019-04-04T06:40:58.866Z,15.60
2019-04-04T06:44:04.379Z,15.43
2019-04-04T06:47:09.677Z,15.20
2019-04-04T06:50:16.319Z,16.70
2019-04-04T06:53:22.283Z,17.13
2019-04-04T06:56:31.755Z,17.10
2019-04-04T06:59:35.585Z,16.97
2019-04-04T07:02:41.084Z,16.67
2019-04-04T07:05:46.396Z,16.30
2019-04-04T07:08:51.679Z,15.70
2019-04-04T07:11:57.002Z,16.50
2019-04-04T07:15:02.319Z,16.00
2019-04-04T07:18:10.144Z,16.00
2019-04-04T07:21:16.113Z,15.53
2019-04-04T07:24:21.392Z,15.60
2019-04-04T07:27:26.726Z,17.10
2019-04-04T07:30:31.993Z,15.83
2019-04-04T07:33:37.407Z,15.07
2019-04-04T07:36:42.716Z,15.40
2019-04-04T07:39:50.050Z,14.93
2019-04-04T07:42:56.023Z,15.17
2019-04-04T07:46:15.272Z,16.27
2019-04-04T07:49:08.503Z,14.00
2019-04-04T07:52:13.882Z,14.90
2019-04-04T07:55:19.213Z,14.50
2019-04-04T07:58:24.524Z,14.80
2019-04-04T08:01:29.923Z,14.40
2019-04-04T08:04:35.152Z,15.50
2019-04-04T08:07:41.763Z,15.60
2019-04-04T08:10:47.042Z,15.17
2019-04-04T08:13:54.798Z,16.00
2019-04-04T08:17:00.223Z,15.50
2019-04-04T08:20:06.208Z,17.07
2019-04-04T08:23:11.719Z,15.87
2019-04-04T08:26:17.102Z,16.03
2019-04-04T08:29:22.437Z,16.47
2019-04-04T08:32:27.782Z,16.50
2019-04-04T08:35:33.051Z,15.90
2019-04-04T08:38:38.373Z,16.00
2019-04-04T08:41:43.641Z,14.90
2019-04-04T08:44:48.948Z,17.10
2019-04-04T08:47:54.268Z,16.27
2019-04-04T08:50:59.541Z,16.40
2019-04-04T08:54:05.011Z,16.20
2019-04-04T08:57:10.466Z,16.80
2019-04-04T09:00:15.937Z,15.40
2019-04-04T09:03:21.276Z,15.73
2019-04-04T09:06:28.147Z,15.87
2019-04-04T09:09:34.815Z,16.43
2019-04-04T09:12:40.472Z,16.60
2019-04-04T09:15:45.839Z,17.10
2019-04-04T09:18:51.206Z,17.27
2019-04-04T09:21:56.570Z,15.87
2019-04-04T09:25:01.969Z,15.80
2019-04-04T09:28:07.272Z,15.73
2019-04-04T09:31:12.558Z,15.80
2019-04-04T09:34:17.914Z,15.07
2019-04-04T09:37:23.211Z,16.97
2019-04-04T09:40:28.519Z,16.27
2019-04-04T09:43:33.897Z,15.33
2019-04-04T09:46:39.147Z,16.30
2019-04-04T09:49:44.427Z,16.70
2019-04-04T09:52:49.707Z,16.17
2019-04-04T09:55:55.915Z,15.20
2019-04-04T09:59:01.194Z,15.77
2019-04-04T10:02:06.526Z,15.90
2019-04-04T10:05:12.027Z,15.50
2019-04-04T10:08:17.327Z,15.03
2019-04-04T10:11:22.665Z,14.23
2019-04-04T10:14:27.983Z,13.77
2019-04-04T10:17:35.667Z,15.03
2019-04-04T10:20:41.081Z,14.87
2019-04-04T10:23:46.574Z,15.43
2019-04-04T10:26:51.868Z,15.50
2019-04-04T10:29:57.216Z,17.20
2019-04-04T10:33:02.563Z,16.20
2019-04-04T10:36:07.977Z,16.60
2019-04-04T10:39:14.196Z,16.00
2019-04-04T10:42:19.559Z,16.73
2019-04-04T10:45:24.846Z,18.47
2019-04-04T10:48:31.154Z,17.33
2019-04-04T10:51:36.446Z,17.33
2019-04-04T10:54:41.912Z,17.77
2019-04-04T10:57:47.271Z,18.33
2019-04-04T11:00:53.531Z,18.17
2019-04-04T11:03:58.763Z,17.27
2019-04-04T11:07:04.113Z,18.37
2019-04-04T11:10:31.611Z,19.03
2019-04-04T11:13:44.617Z,18.70
2019-04-04T11:16:49.985Z,18.40
2019-04-04T11:19:55.261Z,18.60
2019-04-04T11:23:00.647Z,18.70
2019-04-04T11:26:06.130Z,18.87
2019-04-04T11:29:11.422Z,19.07
2019-04-04T11:32:16.696Z,19.07
2019-04-04T11:35:22.030Z,18.20
2019-04-04T11:38:27.357Z,19.10
2019-04-04T11:41:32.661Z,19.93
2019-04-04T11:44:37.932Z,19.87
2019-04-04T11:47:44.593Z,19.87
2019-04-04T11:50:50.046Z,19.40
2019-04-04T11:53:56.418Z,19.00
2019-04-04T11:57:01.780Z,18.30
2019-04-04T12:00:07.746Z,19.93
2019-04-04T12:03:13.041Z,19.00
2019-04-04T12:06:18.342Z,18.77
2019-04-04T12:09:23.595Z,18.80
2019-04-04T12:12:28.875Z,19.00
2019-04-04T12:15:34.235Z,18.83
2019-04-04T12:18:39.546Z,20.23
2019-04-04T12:21:44.901Z,18.63
2019-04-04T12:24:50.161Z,18.70
2019-04-04T12:27:55.502Z,18.23
2019-04-04T12:31:00.815Z,19.87
2019-04-04T12:34:06.084Z,18.03
2019-04-04T12:37:11.441Z,19.63
2019-04-04T12:40:20.977Z,20.57
2019-04-04T12:43:23.786Z,20.73
2019-04-04T12:46:29.061Z,20.87
2019-04-04T12:49:34.446Z,21.83
2019-04-04T12:52:39.862Z,21.23
2019-04-04T12:55:45.101Z,22.03
2019-04-04T12:58:52.787Z,20.80
2019-04-04T13:01:58.131Z,21.63
2019-04-04T13:05:03.525Z,21.57
2019-04-04T13:08:08.865Z,23.00
2019-04-04T13:11:14.172Z,22.90
2019-04-04T13:14:19.546Z,21.70
2019-04-04T13:17:24.904Z,23.90
2019-04-04T13:20:30.230Z,24.30
2019-04-04T13:23:36.466Z,23.47
2019-04-04T13:26:41.767Z,24.90
2019-04-04T13:29:47.066Z,24.77
2019-04-04T13:32:52.406Z,25.07
2019-04-04T13:35:57.624Z,25.97
2019-04-04T13:39:02.942Z,25.93
2019-04-04T13:42:08.526Z,25.90
2019-04-04T13:45:14.809Z,25.80
2019-04-04T13:48:20.061Z,26.50
2019-04-04T13:51:25.632Z,25.10
2019-04-04T13:54:31.145Z,25.87
2019-04-04T13:57:39.408Z,23.53
2019-04-04T14:00:45.010Z,23.40
2019-04-04T14:03:50.313Z,24.87
2019-04-04T14:06:55.596Z,25.13
2019-04-04T14:10:00.960Z,27.30
2019-04-04T14:13:06.265Z,28.87
2019-04-04T14:16:11.585Z,30.37
2019-04-04T14:19:16.914Z,30.83
2019-04-04T14:22:22.172Z,28.90
2019-04-04T14:25:29.324Z,27.50
2019-04-04T14:28:34.622Z,29.40
2019-04-04T14:31:40.037Z,27.90
2019-04-04T14:34:45.336Z,30.23
2019-04-04T14:37:50.669Z,30.90
2019-04-04T14:40:55.953Z,31.00
2019-04-04T14:44:02.606Z,30.70
2019-04-04T14:47:07.881Z,30.67
2019-04-04T14:50:15.850Z,29.70
2019-04-04T14:53:21.126Z,30.90
2019-04-04T14:56:26.420Z,28.80
2019-04-04T14:59:33.676Z,30.10
2019-04-04T15:02:38.915Z,29.20
2019-04-04T15:05:44.240Z,27.20
2019-04-04T15:08:49.590Z,27.20
2019-04-04T15:11:54.890Z,27.20
2019-04-04T15:15:00.201Z,25.93
2019-04-04T15:18:05.492Z,25.50
2019-04-04T15:21:11.001Z,26.10
2019-04-04T15:24:16.257Z,27.43
2019-04-04T15:27:21.484Z,26.70
2019-04-04T15:30:26.771Z,26.80
2019-04-04T15:33:32.053Z,26.37
2019-04-04T15:36:37.337Z,24.40
2019-04-04T15:39:44.236Z,24.70
2019-04-04T15:42:51.023Z,24.30
2019-04-04T15:45:56.408Z,25.30
2019-04-04T15:49:01.632Z,24.13
2019-04-04T15:52:06.983Z,25.83
2019-04-04T15:55:12.310Z,25.70
2019-04-04T15:58:17.666Z,25.07
2019-04-04T16:01:22.936Z,26.23
2019-04-04T16:04:28.318Z,26.20
2019-04-04T16:07:33.626Z,25.80
2019-04-04T16:10:40.049Z,26.73
2019-04-04T16:13:45.422Z,27.63
2019-04-04T16:16:51.024Z,27.60
2019-04-04T16:19:56.447Z,27.67
2019-04-04T16:23:01.907Z,26.20
2019-04-04T16:26:07.296Z,27.47
2019-04-04T16:29:12.701Z,27.30
2019-04-04T16:32:18.031Z,28.67
2019-04-04T16:35:25.809Z,28.07
2019-04-04T16:38:30.385Z,28.00
2019-04-04T16:41:35.706Z,28.50
2019-04-04T16:44:40.990Z,26.30
2019-04-04T16:47:46.322Z,27.13
2019-04-04T16:50:51.800Z,27.80
2019-04-04T16:53:57.176Z,27.03
2019-04-04T16:57:02.424Z,27.27
2019-04-04T17:00:08.450Z,28.77
2019-04-04T17:03:13.821Z,29.40
2019-04-04T17:06:19.133Z,29.40
2019-04-04T17:09:24.485Z,28.37
2019-04-04T17:12:29.899Z,28.40
2019-04-04T17:15:35.170Z,25.60
2019-04-04T17:18:40.450Z,26.03
2019-04-04T17:21:45.726Z,25.13
2019-04-04T17:24:50.959Z,23.47
2019-04-04T17:27:56.306Z,23.53
2019-04-04T17:31:02.212Z,23.70
2019-04-04T17:34:07.641Z,23.03
2019-04-04T17:37:12.978Z,23.33
2019-04-04T17:40:19.529Z,22.80
2019-04-04T17:43:25.293Z,21.77
2019-04-04T17:46:30.822Z,21.57
2019-04-04T17:49:36.531Z,22.37
2019-04-04T17:52:42.352Z,22.77
2019-04-04T17:55:48.591Z,22.30
2019-04-04T17:58:53.869Z,22.20
2019-04-04T18:01:59.231Z,21.10
2019-04-04T18:05:04.932Z,21.50
2019-04-04T18:08:11.320Z,21.23
2019-04-04T18:11:16.681Z,21.90
2019-04-04T18:14:21.993Z,22.30
2019-04-04T18:17:27.308Z,20.73
2019-04-04T18:20:32.560Z,22.10
2019-04-04T18:23:38.210Z,21.83
2019-04-04T18:26:43.504Z,22.67
2019-04-04T18:29:48.840Z,22.80
2019-04-04T18:32:54.564Z,22.03
2019-04-04T18:36:00.040Z,20.93
2019-04-04T18:39:07.808Z,21.90
2019-04-04T18:42:13.324Z,22.47
2019-04-04T18:45:18.689Z,24.10
2019-04-04T18:48:24.008Z,23.00
2019-04-04T18:51:29.275Z,21.73
2019-04-04T18:54:34.631Z,21.83
2019-04-04T18:57:42.872Z,24.20
2019-04-04T19:00:48.166Z,23.63
2019-04-04T19:03:53.488Z,24.47
2019-04-04T19:06:58.798Z,23.73
2019-04-04T19:10:04.355Z,24.10
2019-04-04T19:13:09.712Z,24.30
2019-04-04T19:16:15.009Z,26.70
2019-04-04T19:19:20.873Z,24.23
2019-04-04T19:22:26.236Z,25.27
2019-04-04T19:25:31.565Z,25.20
2019-04-04T19:28:36.938Z,24.77
2019-04-04T19:31:43.927Z,25.27
2019-04-04T19:34:49.197Z,25.10
2019-04-04T19:38:00.218Z,27.10
2019-04-04T19:41:04.780Z,25.00
2019-04-04T19:44:10.460Z,24.37
2019-04-04T19:47:15.771Z,25.50
2019-04-04T19:50:21.056Z,26.17
2019-04-04T19:53:26.344Z,26.67
2019-04-04T19:56:31.661Z,24.17
2019-04-04T19:59:36.985Z,27.00
2019-04-04T20:02:43.991Z,25.77
2019-04-04T20:05:49.379Z,24.83
2019-04-04T20:08:54.724Z,26.47
2019-04-04T20:12:01.385Z,24.63
2019-04-04T20:15:07.353Z,25.30
2019-04-04T20:18:12.629Z,24.73
2019-04-04T20:21:17.923Z,25.00
2019-04-04T20:24:23.184Z,27.20
2019-04-04T20:27:28.530Z,26.70
2019-04-04T20:30:38.351Z,27.30
2019-04-04T20:33:43.706Z,26.87
2019-04-04T20:36:49.229Z,25.70
2019-04-04T20:39:54.619Z,26.40
2019-04-04T20:42:59.892Z,25.80
2019-04-04T20:46:05.221Z,26.10
2019-04-04T20:49:10.470Z,26.40
2019-04-04T20:52:15.883Z,23.20
2019-04-04T20:55:21.193Z,24.37
2019-04-04T20:58:26.444Z,24.77
2019-04-04T21:01:31.814Z,23.90
2019-04-04T21:04:38.275Z,25.10
2019-04-04T21:07:43.977Z,25.20
2019-04-04T21:10:52.493Z,25.10
2019-04-04T21:13:57.822Z,23.77
2019-04-04T21:17:03.196Z,24.43
2019-04-04T21:20:08.539Z,25.47
2019-04-04T21:23:13.923Z,24.27
2019-04-04T21:26:19.187Z,25.10
2019-04-04T21:29:24.498Z,24.10
2019-04-04T21:32:29.748Z,24.60
2019-04-04T21:35:35.020Z,25.20
2019-04-04T21:38:41.303Z,25.60
2019-04-04T21:41:46.597Z,25.20
2019-04-04T21:44:51.918Z,28.30
2019-04-04T21:47:57.289Z,28.20
2019-04-04T21:51:02.579Z,25.77
2019-04-04T21:54:07.898Z,28.40
2019-04-04T21:57:13.192Z,27.30
2019-04-04T22:00:19.169Z,27.20
2019-04-04T22:03:27.094Z,26.20
2019-04-04T22:06:32.387Z,26.63
2019-04-04T22:09:39.464Z,26.37
2019-04-04T22:12:44.759Z,28.10
2019-04-04T22:15:50.024Z,27.67
2019-04-04T22:18:55.295Z,26.07
2019-04-04T22:22:02.885Z,26.53
2019-04-04T22:25:08.272Z,26.53
2019-04-04T22:28:15.088Z,26.77
2019-04-04T22:31:20.393Z,24.87
2019-04-04T22:34:25.713Z,24.80
2019-04-04T22:37:31.047Z,25.47
2019-04-04T22:40:36.345Z,26.40
2019-04-04T22:43:41.647Z,25.30
2019-04-04T22:46:46.907Z,25.67
2019-04-04T22:49:52.176Z,25.47
2019-04-04T22:52:57.492Z,25.70
2019-04-04T22:56:02.921Z,26.20
2019-04-04T22:59:08.287Z,25.40
2019-04-04T23:02:13.579Z,25.17
2019-04-04T23:05:18.868Z,24.77
2019-04-04T23:08:24.123Z,24.70
2019-04-04T23:11:29.486Z,25.60
2019-04-04T23:14:42.191Z,26.40
2019-04-04T23:17:45.587Z,25.83
2019-04-04T23:20:51.072Z,25.53
2019-04-04T23:23:56.396Z,26.33
2019-04-04T23:27:03.914Z,26.97
2019-04-04T23:30:10.988Z,25.67
2019-04-04T23:33:17.878Z,25.97
2019-04-04T23:36:34.378Z,25.20
2019-04-04T23:39:30.175Z,27.67
2019-04-04T23:42:35.472Z,27.80
2019-04-04T23:45:40.796Z,25.87
2019-04-04T23:48:46.076Z,25.93
2019-04-04T23:51:51.422Z,25.23
2019-04-04T23:54:56.747Z,27.47
2019-04-04T23:58:02.106Z,26.90
